createdAt,value
2022-09-09T00:00:48.128Z,95127.63
2022-09-09T00:04:32.049Z,95134.25
2022-09-09T00:08:20.732Z,95121.22
2022-09-09T00:12:08.325Z,95121.91
2022-09-09T00:15:58.782Z,95122.97
2022-09-09T00:19:46.657Z,95120.09
2022-09-09T00:23:31.275Z,95124.34
2022-09-09T00:27:19.943Z,95118.31
2022-09-09T00:31:13.793Z,95120.41
2022-09-09T00:34:58.933Z,95116.59
2022-09-09T00:38:45.083Z,95119.19
2022-09-09T00:42:29.269Z,95114.88
2022-09-09T00:46:38.542Z,95130.72
2022-09-09T00:50:37.599Z,95115.28
2022-09-09T00:54:30.253Z,95130.41
2022-09-09T00:58:13.584Z,95114.81
2022-09-09T01:01:59.357Z,95123.31
2022-09-09T01:05:47.188Z,95124.13
2022-09-09T01:09:34.178Z,95132.34
2022-09-09T01:13:21.441Z,95118.00
2022-09-09T01:17:11.471Z,95131.28
2022-09-09T01:21:01.177Z,95121.91
2022-09-09T01:24:55.375Z,95108.88
2022-09-09T01:28:39.788Z,95119.50
2022-09-09T01:32:41.228Z,95109.97
2022-09-09T01:36:31.041Z,95112.09
2022-09-09T01:40:13.896Z,95115.53
2022-09-09T01:44:01.568Z,95116.91
2022-09-09T01:47:44.373Z,95113.50
2022-09-09T01:51:27.082Z,95119.63
2022-09-09T01:55:11.944Z,95124.44
2022-09-09T01:59:08.751Z,95121.03
2022-09-09T02:02:58.871Z,95122.41
2022-09-09T02:06:42.255Z,95114.38
2022-09-09T02:10:34.012Z,95114.81
2022-09-09T02:14:22.032Z,95109.00
2022-09-09T02:18:08.966Z,95101.09
2022-09-09T02:21:52.032Z,95105.44
2022-09-09T02:25:36.361Z,95103.31
2022-09-09T02:29:22.321Z,95107.38
2022-09-09T02:33:08.567Z,95114.03
2022-09-09T02:36:52.288Z,95104.06
2022-09-09T02:40:37.883Z,95107.84
2022-09-09T02:44:21.906Z,95097.22
2022-09-09T02:48:13.649Z,95097.22
2022-09-09T02:52:01.386Z,95101.41
2022-09-09T02:55:49.319Z,95103.97
2022-09-09T02:59:36.445Z,95101.00
2022-09-09T03:03:20.575Z,95100.22
2022-09-09T03:07:04.648Z,95095.59
2022-09-09T03:10:47.353Z,95100.59
2022-09-09T03:14:29.998Z,95094.50
2022-09-09T03:18:14.124Z,95100.13
2022-09-09T03:21:56.733Z,95090.31
2022-09-09T03:25:39.403Z,95084.75
2022-09-09T03:29:22.609Z,95099.06
2022-09-09T03:33:05.423Z,95095.31
2022-09-09T03:36:50.194Z,95086.22
2022-09-09T03:40:33.036Z,95083.25
2022-09-09T03:44:15.924Z,95089.88
2022-09-09T03:47:58.631Z,95086.66
2022-09-09T03:51:41.426Z,95086.34
2022-09-09T03:55:25.494Z,95095.59
2022-09-09T03:59:09.631Z,95084.75
2022-09-09T04:02:54.984Z,95081.28
2022-09-09T04:06:37.617Z,95081.28
2022-09-09T04:10:20.285Z,95077.03
2022-09-09T04:14:05.144Z,95084.44
2022-09-09T04:17:48.133Z,95072.19
2022-09-09T04:21:30.804Z,95073.50
2022-09-09T04:25:13.459Z,95067.38
2022-09-09T04:28:56.753Z,95064.97
2022-09-09T04:32:40.767Z,95055.34
2022-09-09T04:36:24.074Z,95054.22
2022-09-09T04:40:10.650Z,95057.13
2022-09-09T04:43:54.520Z,95063.38
2022-09-09T04:47:37.252Z,95055.44
2022-09-09T04:51:21.332Z,95047.47
2022-09-09T04:55:04.281Z,95054.72
2022-09-09T04:58:46.953Z,95054.38
2022-09-09T05:02:31.747Z,95056.47
2022-09-09T05:06:16.716Z,95052.47
2022-09-09T05:10:00.897Z,95051.66
2022-09-09T05:13:46.078Z,95058.81
2022-09-09T05:17:28.738Z,95058.56
2022-09-09T05:21:11.409Z,95072.41
2022-09-09T05:24:54.051Z,95072.41
2022-09-09T05:28:38.070Z,95061.28
2022-09-09T05:32:20.721Z,95070.41
2022-09-09T05:36:05.257Z,95081.88
2022-09-09T05:39:48.045Z,95081.41
2022-09-09T05:43:31.211Z,95081.72
2022-09-09T05:47:16.225Z,95083.03
2022-09-09T05:50:58.991Z,95077.22
2022-09-09T05:54:42.602Z,95080.59
2022-09-09T05:58:25.283Z,95086.38
2022-09-09T06:02:08.424Z,95091.91
2022-09-09T06:06:00.830Z,95100.59
2022-09-09T06:09:43.762Z,95099.78
2022-09-09T06:13:26.432Z,95093.34
2022-09-09T06:17:09.083Z,95091.81
2022-09-09T06:21:00.373Z,95094.97
2022-09-09T06:24:43.034Z,95101.56
2022-09-09T06:28:26.066Z,95097.41
2022-09-09T06:32:09.831Z,95086.78
2022-09-09T06:35:54.086Z,95092.09
2022-09-09T06:39:38.219Z,95085.00
2022-09-09T06:43:21.631Z,95097.56
2022-09-09T06:47:04.488Z,95098.00
2022-09-09T06:50:47.897Z,95103.56
2022-09-09T06:54:30.667Z,95107.66
2022-09-09T06:58:14.703Z,95119.38
2022-09-09T07:01:57.986Z,95106.22
2022-09-09T07:05:40.663Z,95113.38
2022-09-09T07:09:23.565Z,95125.38
2022-09-09T07:13:06.894Z,95121.16
2022-09-09T07:16:50.963Z,95142.91
2022-09-09T07:20:33.616Z,95166.09
2022-09-09T07:24:16.686Z,95153.88
2022-09-09T07:27:59.357Z,95161.91
2022-09-09T07:31:42.172Z,95156.59
2022-09-09T07:35:27.164Z,95155.47
2022-09-09T07:39:11.862Z,95157.75
2022-09-09T07:42:54.689Z,95170.78
2022-09-09T07:46:40.250Z,95168.13
2022-09-09T07:50:22.961Z,95170.41
2022-09-09T07:54:08.612Z,95171.06
2022-09-09T07:57:51.254Z,95183.44
2022-09-09T08:01:36.626Z,95175.38
2022-09-09T08:05:19.444Z,95177.69
2022-09-09T08:09:02.208Z,95173.50
2022-09-09T08:13:01.480Z,95182.34
2022-09-09T08:16:50.474Z,95194.50
2022-09-09T08:20:33.148Z,95198.19
2022-09-09T08:24:16.106Z,95205.16
2022-09-09T08:28:00.149Z,95205.75
2022-09-09T08:31:46.132Z,95201.84
2022-09-09T08:35:33.845Z,95213.78
2022-09-09T08:39:18.115Z,95205.25
2022-09-09T08:43:03.899Z,95213.78
2022-09-09T08:46:51.987Z,95217.03
2022-09-09T08:50:36.654Z,95215.34
2022-09-09T08:54:41.518Z,95221.22
2022-09-09T08:58:26.503Z,95219.59
2022-09-09T09:02:17.632Z,95211.78
2022-09-09T09:06:04.916Z,95208.38
2022-09-09T09:09:59.684Z,95208.97
2022-09-09T09:13:46.824Z,95211.69
2022-09-09T09:17:32.347Z,95214.41
2022-09-09T09:21:19.764Z,95206.38
2022-09-09T09:25:06.136Z,95201.66
2022-09-09T09:28:51.215Z,95211.06
2022-09-09T09:32:36.005Z,95221.06
2022-09-09T09:36:19.044Z,95214.50
2022-09-09T09:40:11.378Z,95210.09
2022-09-09T09:43:56.666Z,95217.63
2022-09-09T09:47:42.513Z,95211.78
2022-09-09T09:51:25.982Z,95215.47
2022-09-09T09:55:15.853Z,95223.91
2022-09-09T09:59:00.015Z,95210.25
2022-09-09T10:02:44.965Z,95224.06
2022-09-09T10:06:34.636Z,95217.06
2022-09-09T10:10:23.154Z,95216.19
2022-09-09T10:14:16.051Z,95206.84
2022-09-09T10:18:05.397Z,95212.97
2022-09-09T10:22:01.675Z,95224.16
2022-09-09T10:26:03.474Z,95227.94
2022-09-09T10:30:00.306Z,95218.88
2022-09-09T10:33:50.593Z,95218.41
2022-09-09T10:37:44.461Z,95212.09
2022-09-09T10:41:41.487Z,95209.50
2022-09-09T10:45:34.707Z,95209.56
2022-09-09T10:49:25.233Z,95217.13
2022-09-09T10:53:16.704Z,95210.72
2022-09-09T10:57:02.361Z,95208.63
2022-09-09T11:00:49.353Z,95206.03
2022-09-09T11:04:35.242Z,95212.50
2022-09-09T11:08:20.516Z,95216.88
2022-09-09T11:12:03.651Z,95210.50
2022-09-09T11:15:50.865Z,95212.13
2022-09-09T11:19:36.544Z,95210.53
2022-09-09T11:23:23.142Z,95207.94
2022-09-09T11:27:13.090Z,95204.78
2022-09-09T11:31:07.161Z,95216.03
2022-09-09T11:34:58.587Z,95207.50
2022-09-09T11:38:47.635Z,95202.69
2022-09-09T11:42:30.473Z,95209.66
2022-09-09T11:46:16.285Z,95201.09
2022-09-09T11:50:10.843Z,95197.84
2022-09-09T11:53:55.224Z,95207.44
2022-09-09T11:57:38.713Z,95198.59
2022-09-09T12:01:32.030Z,95196.75
2022-09-09T12:05:16.594Z,95202.41
2022-09-09T12:09:07.576Z,95197.34
2022-09-09T12:12:50.252Z,95201.63
2022-09-09T12:16:36.324Z,95200.81
2022-09-09T12:20:21.489Z,95196.84
2022-09-09T12:24:06.938Z,95191.78
2022-09-09T12:27:59.739Z,95197.97
2022-09-09T12:31:47.024Z,95192.63
2022-09-09T12:35:30.895Z,95179.78
2022-09-09T12:39:19.682Z,95180.34
2022-09-09T12:43:02.384Z,95183.00
2022-09-09T12:46:47.734Z,95175.53
2022-09-09T12:50:32.446Z,95177.66
2022-09-09T12:54:16.196Z,95166.72
2022-09-09T12:58:00.220Z,95173.91
2022-09-09T13:01:43.004Z,95164.81
2022-09-09T13:05:28.969Z,95161.34
2022-09-09T13:09:12.044Z,95168.56
2022-09-09T13:12:55.203Z,95164.03
2022-09-09T13:16:43.032Z,95149.88
2022-09-09T13:20:27.567Z,95140.28
2022-09-09T13:24:28.390Z,95152.53
2022-09-09T13:28:22.635Z,95139.16
2022-09-09T13:32:09.485Z,95134.06
2022-09-09T13:35:56.535Z,95121.41
2022-09-09T13:39:40.058Z,95131.88
2022-09-09T13:43:24.759Z,95137.41
2022-09-09T13:47:17.743Z,95128.16
2022-09-09T13:51:04.078Z,95124.19
2022-09-09T13:54:49.749Z,95112.78
2022-09-09T13:58:32.411Z,95108.78
2022-09-09T14:02:15.218Z,95122.91
2022-09-09T14:05:58.131Z,95120.78
2022-09-09T14:09:42.431Z,95121.31
2022-09-09T14:13:25.642Z,95118.59
2022-09-09T14:17:08.340Z,95126.59
2022-09-09T14:20:51.262Z,95128.16
2022-09-09T14:24:34.924Z,95122.78
2022-09-09T14:28:25.819Z,95123.59
2022-09-09T14:32:22.201Z,95139.59
2022-09-09T14:36:05.906Z,95148.63
2022-09-09T14:39:51.349Z,95146.22
2022-09-09T14:43:35.407Z,95143.75
2022-09-09T14:47:18.219Z,95136.75
2022-09-09T14:51:07.347Z,95138.88
2022-09-09T14:54:50.525Z,95148.19
2022-09-09T14:58:33.215Z,95146.88
2022-09-09T15:02:17.622Z,95138.09
2022-09-09T15:06:00.348Z,95142.63
2022-09-09T15:09:43.077Z,95137.84
2022-09-09T15:13:26.493Z,95144.19
2022-09-09T15:17:09.220Z,95141.53
2022-09-09T15:20:54.083Z,95133.56
2022-09-09T15:24:37.054Z,95134.13
2022-09-09T15:28:19.973Z,95131.47
2022-09-09T15:32:02.814Z,95125.59
2022-09-09T15:35:45.512Z,95122.38
2022-09-09T15:39:29.990Z,95115.44
2022-09-09T15:43:14.257Z,95107.41
2022-09-09T15:46:57.146Z,95106.56
2022-09-09T15:50:39.800Z,95113.56
2022-09-09T15:54:24.779Z,95116.47
2022-09-09T15:58:08.789Z,95107.44
2022-09-09T16:01:52.212Z,95111.91
2022-09-09T16:05:35.320Z,95102.06
2022-09-09T16:09:18.024Z,95104.50
2022-09-09T16:13:00.909Z,95106.59
2022-09-09T16:16:45.072Z,95102.88
2022-09-09T16:20:27.733Z,95100.13
2022-09-09T16:24:11.873Z,95102.03
2022-09-09T16:27:54.639Z,95091.66
2022-09-09T16:31:38.603Z,95098.81
2022-09-09T16:35:23.119Z,95086.72
2022-09-09T16:39:07.764Z,95089.50
2022-09-09T16:42:50.429Z,95083.28
2022-09-09T16:46:36.408Z,95083.38
2022-09-09T16:50:19.211Z,95091.50
2022-09-09T16:54:04.747Z,95087.28
2022-09-09T16:57:48.462Z,95082.28
2022-09-09T17:01:35.964Z,95075.38
2022-09-09T17:05:19.218Z,95093.81
2022-09-09T17:09:05.898Z,95096.22
2022-09-09T17:12:48.626Z,95093.84
2022-09-09T17:16:32.944Z,95088.47
2022-09-09T17:20:15.845Z,95100.66
2022-09-09T17:23:59.007Z,95093.19
2022-09-09T17:27:43.072Z,95104.81
2022-09-09T17:31:26.539Z,95095.69
2022-09-09T17:35:10.058Z,95091.09
2022-09-09T17:38:52.968Z,95095.00
2022-09-09T17:42:36.068Z,95101.34
2022-09-09T17:46:32.936Z,95111.44
2022-09-09T17:50:15.795Z,95120.94
2022-09-09T17:54:00.369Z,95115.00
2022-09-09T17:57:43.175Z,95125.03
2022-09-09T18:01:29.051Z,95120.44
2022-09-09T18:05:11.743Z,95135.47
2022-09-09T18:08:56.014Z,95126.38
2022-09-09T18:12:38.713Z,95130.75
2022-09-09T18:16:22.381Z,95131.97
2022-09-09T18:20:08.418Z,95135.69
2022-09-09T18:23:52.259Z,95134.47
2022-09-09T18:27:34.927Z,95135.28
2022-09-09T18:31:19.025Z,95145.59
2022-09-09T18:35:02.262Z,95140.41
2022-09-09T18:38:46.553Z,95151.78
2022-09-09T18:42:29.169Z,95162.41
2022-09-09T18:46:12.548Z,95175.66
2022-09-09T18:49:55.492Z,95173.25
2022-09-09T18:53:39.057Z,95168.72
2022-09-09T18:57:23.230Z,95163.59
2022-09-09T19:01:07.840Z,95167.31
2022-09-09T19:04:50.989Z,95176.34
2022-09-09T19:08:37.041Z,95184.25
2022-09-09T19:12:19.956Z,95189.44
2022-09-09T19:16:06.619Z,95196.53
2022-09-09T19:19:51.413Z,95252.50
2022-09-09T19:23:34.053Z,95237.22
2022-09-09T19:27:16.979Z,95246.72
2022-09-09T19:31:08.337Z,95249.78
2022-09-09T19:34:51.524Z,95253.00
2022-09-09T19:38:35.472Z,95256.38
2022-09-09T19:42:18.180Z,95252.31
2022-09-09T19:46:02.514Z,95258.69
2022-09-09T19:49:47.609Z,95266.63
2022-09-09T19:53:30.540Z,95275.19
2022-09-09T19:57:13.182Z,95266.19
2022-09-09T20:00:55.843Z,95270.34
2022-09-09T20:04:38.810Z,95260.13
2022-09-09T20:08:22.863Z,95258.19
2022-09-09T20:12:06.181Z,95265.81
2022-09-09T20:15:57.747Z,95267.91
2022-09-09T20:19:40.755Z,95271.59
2022-09-09T20:23:24.817Z,95281.41
2022-09-09T20:27:51.166Z,95264.69
2022-09-09T20:31:36.401Z,95270.00
2022-09-09T20:35:19.109Z,95268.63
2022-09-09T20:39:07.234Z,95263.56
2022-09-09T20:42:49.930Z,95266.13
2022-09-09T20:46:34.148Z,95270.75
2022-09-09T20:50:17.035Z,95263.75
2022-09-09T20:54:03.794Z,95265.94
